createdAt,value
2018-12-06T00:09:18.476Z,15.40
2018-12-06T00:15:07.316Z,11.00
2018-12-06T00:17:34.990Z,12.27
2018-12-06T00:20:06.235Z,14.00
2018-12-06T00:22:33.853Z,16.30
2018-12-06T00:31:27.319Z,14.67
2018-12-06T00:33:55.076Z,17.70
2018-12-06T00:36:23.046Z,13.40
2018-12-06T00:38:50.860Z,13.70
2018-12-06T00:41:18.685Z,15.40
2018-12-06T00:43:46.589Z,17.23
2018-12-06T00:46:37.015Z,14.90
2018-12-06T00:49:04.792Z,17.03
2018-12-06T00:51:32.885Z,21.67
2018-12-06T00:54:00.711Z,15.00
2018-12-06T00:56:28.544Z,19.27
2018-12-06T00:58:56.370Z,17.07
2018-12-06T01:01:24.451Z,15.23
2018-12-06T01:04:10.618Z,16.83
2018-12-06T01:06:38.333Z,21.70
2018-12-06T01:09:06.202Z,16.10
2018-12-06T01:11:33.830Z,17.57
2018-12-06T01:14:01.696Z,17.97
2018-12-06T01:16:31.598Z,13.13
2018-12-06T01:18:59.398Z,13.83
2018-12-06T01:21:27.051Z,21.07
2018-12-06T01:23:54.735Z,13.90
2018-12-06T01:26:22.516Z,13.20
2018-12-06T01:28:50.009Z,12.07
2018-12-06T01:31:17.720Z,19.40
2018-12-06T01:33:45.208Z,20.20
2018-12-06T01:36:12.872Z,17.47
2018-12-06T01:38:40.512Z,16.27
2018-12-06T01:41:08.098Z,19.63
2018-12-06T01:43:35.814Z,19.87
2018-12-06T01:46:03.590Z,22.50
2018-12-06T01:48:31.567Z,20.73
2018-12-06T01:50:59.079Z,23.93
2018-12-06T01:53:26.657Z,18.23
2018-12-06T01:55:54.210Z,17.60
2018-12-06T01:58:21.763Z,19.40
2018-12-06T02:00:49.455Z,22.77
2018-12-06T02:03:17.145Z,21.40
2018-12-06T02:05:44.897Z,24.90
2018-12-06T02:08:12.612Z,24.87
2018-12-06T02:10:40.157Z,24.53
2018-12-06T02:13:07.740Z,23.07
2018-12-06T02:15:35.290Z,22.37
2018-12-06T02:18:03.001Z,24.50
2018-12-06T02:20:30.656Z,23.50
2018-12-06T02:22:58.217Z,21.07
2018-12-06T02:25:25.806Z,30.90
2018-12-06T02:27:53.369Z,26.57
2018-12-06T02:30:21.241Z,30.30
2018-12-06T02:32:48.874Z,23.00
2018-12-06T02:35:16.435Z,27.37
2018-12-06T02:37:44.108Z,24.27
2018-12-06T02:40:11.961Z,27.83
2018-12-06T02:42:39.654Z,25.70
2018-12-06T02:45:07.355Z,28.40
2018-12-06T02:47:35.012Z,27.93
2018-12-06T02:50:02.657Z,27.40
2018-12-06T02:52:30.154Z,27.13
2018-12-06T02:54:57.689Z,30.83
2018-12-06T02:57:25.276Z,25.17
2018-12-06T02:59:52.982Z,34.60
2018-12-06T03:02:20.632Z,27.07
2018-12-06T03:04:48.481Z,28.83
2018-12-06T03:07:16.208Z,30.03
2018-12-06T03:09:46.173Z,34.27
2018-12-06T03:12:13.191Z,27.33
2018-12-06T03:14:40.640Z,30.30
2018-12-06T03:17:08.385Z,28.70
2018-12-06T03:19:36.155Z,30.60
2018-12-06T03:22:03.829Z,31.77
2018-12-06T03:24:31.366Z,28.10
2018-12-06T03:26:59.123Z,28.87
2018-12-06T03:29:26.786Z,29.47
2018-12-06T03:31:54.547Z,28.03
2018-12-06T03:34:22.139Z,29.10
2018-12-06T03:36:49.753Z,25.20
2018-12-06T03:39:17.415Z,28.00
2018-12-06T03:41:45.099Z,30.43
2018-12-06T03:44:12.773Z,26.40
2018-12-06T03:46:41.468Z,31.03
2018-12-06T03:49:09.050Z,30.50
2018-12-06T03:51:36.687Z,28.63
2018-12-06T03:54:05.508Z,35.53
2018-12-06T03:56:33.297Z,31.27
2018-12-06T03:59:00.862Z,30.27
2018-12-06T04:01:28.475Z,30.73
2018-12-06T04:03:56.060Z,30.97
2018-12-06T04:06:23.791Z,32.67
2018-12-06T04:08:51.362Z,33.77
2018-12-06T04:11:18.889Z,31.33
2018-12-06T04:13:46.528Z,31.30
2018-12-06T04:16:13.984Z,36.23
2018-12-06T04:18:41.376Z,30.47
2018-12-06T04:21:09.088Z,36.33
2018-12-06T04:23:36.557Z,32.47
2018-12-06T04:26:04.331Z,31.60
2018-12-06T04:28:32.103Z,35.60
2018-12-06T04:30:59.777Z,33.20
2018-12-06T04:33:27.462Z,35.17
2018-12-06T04:35:55.057Z,36.47
2018-12-06T04:38:22.573Z,36.17
2018-12-06T04:40:50.095Z,33.97
2018-12-06T04:43:17.833Z,31.10
2018-12-06T04:45:45.406Z,34.23
2018-12-06T04:48:12.835Z,31.57
2018-12-06T04:50:40.333Z,34.07
2018-12-06T04:53:07.998Z,32.87
2018-12-06T04:55:35.846Z,33.93
2018-12-06T04:58:03.407Z,34.43
2018-12-06T05:00:31.051Z,33.30
2018-12-06T05:02:58.658Z,34.70
2018-12-06T05:05:26.194Z,39.53
2018-12-06T05:07:53.774Z,34.20
2018-12-06T05:10:21.331Z,35.13
2018-12-06T05:12:49.106Z,36.73
2018-12-06T05:15:16.557Z,32.70
2018-12-06T05:17:44.203Z,32.70
2018-12-06T05:20:11.833Z,34.73
2018-12-06T05:22:39.581Z,30.13
2018-12-06T05:25:07.189Z,33.50
2018-12-06T05:27:35.409Z,34.07
2018-12-06T05:30:03.600Z,37.67
2018-12-06T05:32:31.406Z,36.73
2018-12-06T05:34:59.149Z,36.93
2018-12-06T05:37:27.108Z,39.47
2018-12-06T05:39:54.924Z,36.37
2018-12-06T05:42:22.735Z,39.63
2018-12-06T05:44:51.949Z,38.03
2018-12-06T05:47:19.759Z,38.03
2018-12-06T05:49:47.637Z,34.77
2018-12-06T05:52:15.285Z,38.83
2018-12-06T05:54:42.808Z,39.80
2018-12-06T05:57:10.319Z,37.17
2018-12-06T05:59:38.301Z,36.33
2018-12-06T06:02:06.355Z,35.43
2018-12-06T06:04:34.458Z,41.17
2018-12-06T06:07:02.280Z,37.80
2018-12-06T06:09:31.115Z,41.03
2018-12-06T06:11:59.162Z,38.03
2018-12-06T06:14:26.914Z,35.53
2018-12-06T06:16:56.845Z,40.53
2018-12-06T06:19:43.857Z,38.13
2018-12-06T06:22:11.682Z,35.83
2018-12-06T06:24:39.939Z,41.43
2018-12-06T06:27:18.601Z,40.93
2018-12-06T06:30:07.190Z,39.57
2018-12-06T06:35:44.361Z,43.47
2018-12-06T06:38:26.208Z,38.70
2018-12-06T06:41:12.006Z,38.57
2018-12-06T06:43:58.784Z,40.77
2018-12-06T06:49:45.716Z,43.83
2018-12-06T06:55:33.486Z,42.27
2018-12-06T07:01:20.292Z,37.53
2018-12-06T07:04:05.283Z,43.90
2018-12-06T07:32:34.767Z,48.40
2018-12-06T07:38:24.164Z,49.23
2018-12-06T07:56:24.449Z,65.30
2018-12-06T07:58:52.775Z,64.77
2018-12-06T08:01:20.758Z,69.43
2018-12-06T08:03:48.753Z,71.83
2018-12-06T08:06:16.562Z,76.50
2018-12-06T08:08:44.477Z,75.83
2018-12-06T08:11:12.487Z,87.60
2018-12-06T08:13:40.365Z,87.20
2018-12-06T08:16:08.251Z,87.10
2018-12-06T08:18:36.278Z,94.53
2018-12-06T08:21:04.468Z,90.83
2018-12-06T08:23:32.387Z,81.27
2018-12-06T08:26:00.180Z,94.97
2018-12-06T08:28:28.142Z,94.40
2018-12-06T08:30:56.139Z,88.73
2018-12-06T08:33:24.138Z,87.77
2018-12-06T08:35:52.157Z,84.30
2018-12-06T08:38:20.034Z,83.00
2018-12-06T08:40:48.144Z,87.00
2018-12-06T08:43:16.039Z,80.00
2018-12-06T08:46:00.415Z,88.33
2018-12-06T08:48:28.386Z,90.07
2018-12-06T08:50:56.464Z,83.93
2018-12-06T08:53:25.095Z,81.90
2018-12-06T08:55:53.236Z,90.37
2018-12-06T08:58:21.246Z,90.70
2018-12-06T09:00:49.182Z,92.03
2018-12-06T09:03:17.135Z,99.37
2018-12-06T09:05:45.070Z,108.93
2018-12-06T09:08:13.206Z,93.97
2018-12-06T09:10:42.461Z,111.73
2018-12-06T09:13:10.823Z,106.43
2018-12-06T09:15:38.712Z,100.87
2018-12-06T09:18:06.849Z,109.17
2018-12-06T09:20:35.179Z,99.83
2018-12-06T09:26:25.210Z,93.33
2018-12-06T09:28:53.196Z,99.87
2018-12-06T09:31:32.866Z,89.73
2018-12-06T09:34:06.911Z,89.37
2018-12-06T09:36:36.188Z,91.40
2018-12-06T09:39:07.783Z,86.70
2018-12-06T09:41:37.190Z,90.90
2018-12-06T09:44:05.082Z,85.47
2018-12-06T09:46:33.820Z,83.93
2018-12-06T09:49:03.345Z,80.90
2018-12-06T09:51:32.723Z,96.57
2018-12-06T09:54:01.061Z,81.47
2018-12-06T09:56:29.031Z,81.00
2018-12-06T09:58:57.223Z,77.83
2018-12-06T10:10:31.834Z,76.37
2018-12-06T10:15:53.013Z,73.70
2018-12-06T10:18:20.938Z,74.33
2018-12-06T10:20:48.971Z,73.23
2018-12-06T10:23:16.901Z,81.43
2018-12-06T10:26:05.490Z,81.63
2018-12-06T10:28:35.638Z,79.97
2018-12-06T10:34:24.955Z,76.53
2018-12-06T10:37:15.469Z,66.87
2018-12-06T10:40:02.104Z,70.23
2018-12-06T10:42:30.164Z,72.90
2018-12-06T10:45:14.053Z,75.03
2018-12-06T10:47:42.400Z,78.27
2018-12-06T10:50:10.587Z,91.37
2018-12-06T10:52:38.897Z,88.10
2018-12-06T10:55:06.891Z,93.27
2018-12-06T11:00:39.340Z,118.03
2018-12-06T11:03:13.623Z,130.13
2018-12-06T11:05:41.733Z,118.30
2018-12-06T11:08:10.089Z,134.23
2018-12-06T11:32:14.723Z,93.97
2018-12-06T12:02:30.477Z,83.87
2018-12-06T12:44:53.319Z,93.20
2018-12-06T12:47:21.209Z,106.77
2018-12-06T12:49:49.251Z,103.77
2018-12-06T12:52:17.473Z,112.93
2018-12-06T12:54:45.712Z,115.93
2018-12-06T12:57:14.174Z,112.90
2018-12-06T12:59:42.511Z,124.30
2018-12-06T13:32:58.500Z,177.03
2018-12-06T13:35:27.464Z,180.87
2018-12-06T13:37:55.625Z,201.13
2018-12-06T13:40:23.839Z,189.50
2018-12-06T13:42:52.082Z,210.40
2018-12-06T13:45:20.096Z,196.60
2018-12-06T13:47:48.224Z,213.77
2018-12-06T13:50:16.361Z,202.53
2018-12-06T13:52:44.224Z,195.97
2018-12-06T13:55:12.822Z,193.73
2018-12-06T13:57:40.782Z,207.93
2018-12-06T14:00:37.082Z,193.93
2018-12-06T14:03:05.055Z,209.77
2018-12-06T14:05:33.021Z,186.73
2018-12-06T14:08:00.830Z,209.77
2018-12-06T14:10:28.539Z,222.13
2018-12-06T14:12:56.121Z,190.50
2018-12-06T14:15:23.908Z,173.73
2018-12-06T14:17:55.979Z,192.20
2018-12-06T14:20:24.127Z,206.50
2018-12-06T14:22:57.506Z,186.60
2018-12-06T14:25:25.283Z,190.90
2018-12-06T14:27:53.572Z,206.13
2018-12-06T14:30:21.230Z,196.30
2018-12-06T14:32:49.023Z,185.17
2018-12-06T14:35:16.882Z,178.00
2018-12-06T14:37:44.723Z,187.33
2018-12-06T14:40:12.971Z,177.17
2018-12-06T14:42:40.877Z,167.87
2018-12-06T14:45:08.850Z,145.80
2018-12-06T14:47:36.630Z,132.00
2018-12-06T14:50:05.023Z,138.00
2018-12-06T14:52:32.725Z,123.93
2018-12-06T14:55:00.262Z,121.63
2018-12-06T14:57:27.835Z,117.67
2018-12-06T14:59:55.331Z,120.10
2018-12-06T15:02:22.987Z,116.77
2018-12-06T15:04:50.601Z,114.43
2018-12-06T15:07:18.131Z,120.03
2018-12-06T15:09:45.702Z,111.07
2018-12-06T15:12:13.568Z,113.70
2018-12-06T15:14:41.360Z,115.13
2018-12-06T15:17:09.272Z,105.43
2018-12-06T17:15:48.714Z,48.57
2018-12-06T17:18:26.973Z,64.00
2018-12-06T17:36:00.999Z,49.67
2018-12-06T17:38:28.701Z,49.93
2018-12-06T17:40:56.611Z,47.50
2018-12-06T17:43:24.316Z,48.77
2018-12-06T17:45:51.998Z,53.77
2018-12-06T17:48:19.830Z,52.63
2018-12-06T17:50:47.661Z,55.80
2018-12-06T17:53:15.537Z,57.87
2018-12-06T17:55:54.456Z,54.63
2018-12-06T17:58:22.339Z,65.03
2018-12-06T18:00:50.166Z,63.83
2018-12-06T18:03:17.835Z,63.40
2018-12-06T18:05:45.687Z,59.13
2018-12-06T18:08:13.327Z,66.10
2018-12-06T18:10:41.307Z,67.70
2018-12-06T18:13:10.277Z,58.90
2018-12-06T18:15:39.000Z,65.40
2018-12-06T18:18:06.835Z,60.40
2018-12-06T18:20:35.811Z,61.13
2018-12-06T18:23:04.201Z,60.03
2018-12-06T18:25:32.264Z,58.07
2018-12-06T18:28:00.039Z,63.33
2018-12-06T18:30:27.957Z,62.37
2018-12-06T18:32:55.725Z,58.97
2018-12-06T18:35:23.633Z,62.70
2018-12-06T18:37:51.700Z,64.03
2018-12-06T18:40:19.674Z,63.27
2018-12-06T18:42:47.638Z,65.53
2018-12-06T18:45:15.292Z,61.07
2018-12-06T18:47:43.403Z,67.40
2018-12-06T18:50:11.604Z,68.23
2018-12-06T18:52:39.683Z,62.63
2018-12-06T18:55:07.839Z,59.73
2018-12-06T18:57:55.665Z,63.30
2018-12-06T19:00:37.097Z,57.70
2018-12-06T19:03:33.967Z,59.73
2018-12-06T21:31:26.139Z,80.63
2018-12-06T21:33:54.089Z,90.60
2018-12-06T21:36:22.054Z,94.97
2018-12-06T21:38:50.030Z,92.80
2018-12-06T21:41:17.821Z,91.40
2018-12-06T21:43:45.988Z,91.50
2018-12-06T21:46:13.820Z,91.33
2018-12-06T21:48:41.670Z,90.30
2018-12-06T21:51:09.457Z,96.57
2018-12-06T21:53:37.384Z,97.03
2018-12-06T21:56:05.878Z,86.97
2018-12-06T21:58:33.751Z,90.33
2018-12-06T22:01:02.603Z,86.57
2018-12-06T22:03:30.549Z,93.07
2018-12-06T22:05:58.484Z,89.33
2018-12-06T22:08:26.175Z,96.07
2018-12-06T22:29:30.808Z,94.20
2018-12-06T22:32:14.561Z,93.43
2018-12-06T22:38:03.430Z,78.57
2018-12-06T22:40:48.566Z,80.17
2018-12-06T23:01:39.378Z,65.77
2018-12-06T23:04:23.255Z,69.30
2018-12-06T23:10:14.387Z,70.67
2018-12-06T23:16:03.229Z,71.60
2018-12-06T23:21:52.381Z,66.77
2018-12-06T23:24:40.065Z,62.43
2018-12-06T23:36:32.251Z,54.83
2018-12-06T23:39:18.801Z,54.40
2018-12-06T23:42:02.804Z,49.13
2018-12-06T23:50:57.154Z,52.33
